createdAt,value
2023-03-03T00:00:53.031Z,20.43
2023-03-03T00:02:17.116Z,20.64
2023-03-03T00:03:40.311Z,20.78
2023-03-03T00:05:02.056Z,19.07
2023-03-03T00:06:27.996Z,22.46
2023-03-03T00:07:49.563Z,23.27
2023-03-03T00:09:14.410Z,22.65
2023-03-03T00:10:36.938Z,24.69
2023-03-03T00:12:04.251Z,24.56
2023-03-03T00:13:28.621Z,22.53
2023-03-03T00:14:50.688Z,23.78
2023-03-03T00:17:40.829Z,19.80
2023-03-03T00:19:03.064Z,20.56
2023-03-03T00:20:37.448Z,17.87
2023-03-03T00:22:01.845Z,15.76
2023-03-03T00:23:28.132Z,20.34
2023-03-03T00:24:53.454Z,15.21
2023-03-03T00:26:33.243Z,17.11
2023-03-03T00:28:07.644Z,15.98
2023-03-03T00:29:54.467Z,17.61
2023-03-03T00:31:21.694Z,17.68
2023-03-03T00:32:49.884Z,17.44
2023-03-03T00:34:21.669Z,16.18
2023-03-03T00:35:58.645Z,18.84
2023-03-03T00:37:37.674Z,17.78
2023-03-03T00:39:17.427Z,19.46
2023-03-03T00:40:44.988Z,18.06
2023-03-03T00:42:28.931Z,17.78
2023-03-03T00:43:55.166Z,22.78
2023-03-03T00:45:36.499Z,24.77
2023-03-03T00:47:00.435Z,31.07
2023-03-03T00:48:30.541Z,24.08
2023-03-03T00:50:11.414Z,19.82
2023-03-03T00:51:33.831Z,18.79
2023-03-03T00:53:03.458Z,18.24
2023-03-03T00:54:27.450Z,19.46
2023-03-03T00:55:50.295Z,19.84
2023-03-03T00:57:14.030Z,18.15
2023-03-03T00:58:36.314Z,19.48
2023-03-03T01:00:00.813Z,21.04
2023-03-03T01:01:23.880Z,20.09
2023-03-03T01:02:47.365Z,17.81
2023-03-03T01:04:10.116Z,19.37
2023-03-03T01:05:32.568Z,19.88
2023-03-03T01:06:56.113Z,21.37
2023-03-03T01:08:18.050Z,22.14
2023-03-03T01:09:40.213Z,22.96
2023-03-03T01:11:11.758Z,22.82
2023-03-03T01:12:34.885Z,24.53
2023-03-03T01:13:58.570Z,22.33
2023-03-03T01:15:22.463Z,23.82
2023-03-03T01:18:07.772Z,35.37
2023-03-03T01:19:29.764Z,27.99
2023-03-03T01:20:51.829Z,23.38
2023-03-03T01:22:20.921Z,20.09
2023-03-03T01:23:43.921Z,28.89
2023-03-03T01:25:07.522Z,25.79
2023-03-03T01:26:30.590Z,23.90
2023-03-03T01:27:52.703Z,19.36
2023-03-03T01:29:16.412Z,21.23
2023-03-03T01:30:39.708Z,22.07
2023-03-03T01:34:01.934Z,23.00
2023-03-03T01:35:26.414Z,22.51
2023-03-03T01:36:53.467Z,23.64
2023-03-03T01:38:17.802Z,22.33
2023-03-03T01:39:43.699Z,21.76
2023-03-03T01:41:06.106Z,19.83
2023-03-03T01:42:31.122Z,19.38
2023-03-03T01:44:00.760Z,21.77
2023-03-03T01:45:35.663Z,18.62
2023-03-03T01:47:21.087Z,19.15
2023-03-03T01:50:51.929Z,21.58
2023-03-03T01:52:28.019Z,20.26
2023-03-03T01:53:57.328Z,18.67
2023-03-03T01:55:24.153Z,20.58
2023-03-03T02:00:16.859Z,21.78
2023-03-03T02:01:56.960Z,23.63
2023-03-03T07:01:03.375Z,17.45
2023-03-03T07:06:26.476Z,24.64
2023-03-03T07:07:51.014Z,19.66
2023-03-03T07:09:18.445Z,19.85
2023-03-03T16:20:04.611Z,32.16
2023-03-03T16:27:34.730Z,34.09
2023-03-03T16:53:50.222Z,36.17
2023-03-03T16:55:24.084Z,34.26
2023-03-03T17:03:32.265Z,34.31
2023-03-03T17:05:03.066Z,37.59
2023-03-03T17:24:55.604Z,40.22
2023-03-03T17:26:34.208Z,33.98
2023-03-03T17:28:48.520Z,36.61
2023-03-03T17:30:42.920Z,36.12
2023-03-03T17:58:56.996Z,35.92
2023-03-03T18:17:26.495Z,39.90
2023-03-03T18:20:38.224Z,31.31
2023-03-03T18:25:55.165Z,40.57
2023-03-03T18:27:37.634Z,40.67
2023-03-03T18:30:59.316Z,37.45
2023-03-03T18:32:22.318Z,42.80
2023-03-03T18:33:46.625Z,41.84
2023-03-03T18:35:35.759Z,41.41
2023-03-03T18:37:06.041Z,36.88
2023-03-03T18:38:33.972Z,39.56
2023-03-03T18:40:08.899Z,39.95
2023-03-03T18:41:33.754Z,39.73
2023-03-03T18:42:59.562Z,38.61
2023-03-03T18:44:33.065Z,37.74
2023-03-03T18:45:54.930Z,39.99
2023-03-03T18:47:18.262Z,41.34
2023-03-03T18:49:02.965Z,36.45
2023-03-03T18:50:35.444Z,41.32
2023-03-03T18:53:43.296Z,42.57
2023-03-03T18:55:11.412Z,39.43
2023-03-03T18:56:43.124Z,39.55
2023-03-03T18:58:19.779Z,39.03
2023-03-03T19:01:44.677Z,63.72
2023-03-03T19:04:31.759Z,41.11
2023-03-03T19:06:01.380Z,44.67
2023-03-03T19:07:26.610Z,41.81
2023-03-03T19:08:59.203Z,37.42
2023-03-03T19:10:44.361Z,36.97
2023-03-03T19:12:15.210Z,43.10
2023-03-03T19:13:41.457Z,35.54
2023-03-03T19:15:05.185Z,38.77
2023-03-03T19:16:33.603Z,37.91
2023-03-03T19:18:08.399Z,37.69
2023-03-03T19:19:39.358Z,41.62
2023-03-03T19:21:34.708Z,40.19
2023-03-03T19:25:36.330Z,41.26
2023-03-03T19:29:25.879Z,40.43
2023-03-03T19:31:02.928Z,35.38
2023-03-03T19:32:40.895Z,41.14
2023-03-03T19:34:26.271Z,38.20
2023-03-03T19:36:11.468Z,40.45
2023-03-03T19:37:40.716Z,40.42
2023-03-03T19:39:17.892Z,40.89
2023-03-03T19:41:07.420Z,40.03
2023-03-03T19:42:52.520Z,38.82
2023-03-03T19:44:21.227Z,40.92
2023-03-03T19:46:06.326Z,37.20
2023-03-03T19:47:50.302Z,39.17
2023-03-03T19:49:33.304Z,39.86
2023-03-03T19:51:27.966Z,38.34
2023-03-03T19:53:15.355Z,36.98
2023-03-03T19:55:08.950Z,40.86
2023-03-03T19:56:40.228Z,40.11
2023-03-03T19:59:53.498Z,39.68
2023-03-03T20:01:46.558Z,36.79
2023-03-03T20:03:30.770Z,34.26
2023-03-03T20:05:14.384Z,32.44
2023-03-03T20:06:53.171Z,32.00
2023-03-03T20:08:21.914Z,35.46
2023-03-03T20:09:56.496Z,34.53
2023-03-03T20:11:52.962Z,33.95
2023-03-03T20:13:36.346Z,36.41
2023-03-03T20:16:35.348Z,38.78
2023-03-03T20:18:12.408Z,38.81
2023-03-03T20:19:58.708Z,37.51
2023-03-03T20:21:27.484Z,36.62
2023-03-03T20:23:09.510Z,37.45
2023-03-03T20:24:59.551Z,39.68
2023-03-03T20:28:08.825Z,41.86
2023-03-03T20:29:53.076Z,41.61
2023-03-03T20:31:40.459Z,40.38
2023-03-03T20:33:22.602Z,43.13
2023-03-03T20:35:09.885Z,43.79
2023-03-03T20:36:57.052Z,40.56
2023-03-03T20:38:41.037Z,36.64
2023-03-03T20:40:10.135Z,34.65
2023-03-03T20:41:58.871Z,35.49
2023-03-03T20:43:37.476Z,31.99
2023-03-03T20:45:14.034Z,32.14
2023-03-03T20:49:09.209Z,34.21
2023-03-03T20:50:38.044Z,35.59
2023-03-03T20:52:22.094Z,39.63
2023-03-03T21:08:16.087Z,42.17
2023-03-03T21:21:54.802Z,24.08
2023-03-03T21:23:17.759Z,44.29
2023-03-03T21:24:54.485Z,41.14
2023-03-03T21:27:40.576Z,36.38
2023-03-03T21:30:25.599Z,44.13
2023-03-03T21:33:16.075Z,44.74
2023-03-03T21:34:39.601Z,43.36
2023-03-03T21:36:00.681Z,42.52
2023-03-03T21:37:46.272Z,43.52
2023-03-03T21:39:39.756Z,45.71
2023-03-03T21:41:03.687Z,34.74
2023-03-03T21:42:43.156Z,42.61
2023-03-03T21:44:07.331Z,40.18
2023-03-03T21:45:29.061Z,40.94
2023-03-03T21:46:52.330Z,40.36
2023-03-03T21:48:14.151Z,36.55
2023-03-03T21:49:36.236Z,36.62
2023-03-03T21:50:57.843Z,37.31
2023-03-03T21:52:21.233Z,36.74
2023-03-03T21:53:48.583Z,35.42
2023-03-03T21:55:11.607Z,53.59
2023-03-03T21:56:36.173Z,37.68
2023-03-03T21:58:01.634Z,38.54
2023-03-03T21:59:23.664Z,38.02
2023-03-03T22:12:40.142Z,31.29
2023-03-03T22:15:35.935Z,34.07
2023-03-03T22:17:00.268Z,38.39
2023-03-03T22:18:27.058Z,40.34
2023-03-03T22:19:48.629Z,36.34
2023-03-03T22:21:10.198Z,37.66
2023-03-03T22:22:33.043Z,33.61
2023-03-03T22:23:56.655Z,33.44
2023-03-03T22:25:20.275Z,38.33
2023-03-03T22:26:42.226Z,35.15
2023-03-03T22:28:04.638Z,37.31
2023-03-03T22:29:26.106Z,36.34
2023-03-03T22:30:51.427Z,35.81
2023-03-03T22:32:13.826Z,36.11
2023-03-03T22:33:37.174Z,37.46
2023-03-03T22:34:59.289Z,34.74
2023-03-03T22:38:03.443Z,32.67
2023-03-03T22:39:25.759Z,33.54
2023-03-03T22:40:47.607Z,27.24
2023-03-03T22:42:09.633Z,36.32
2023-03-03T22:43:32.206Z,36.10
2023-03-03T22:44:54.016Z,35.42
2023-03-03T22:46:17.359Z,33.48
2023-03-03T22:47:38.932Z,29.01
2023-03-03T22:49:01.040Z,34.45
2023-03-03T22:50:23.012Z,33.67
2023-03-03T22:51:45.034Z,34.60
2023-03-03T22:53:06.464Z,28.13
2023-03-03T22:54:27.938Z,35.50
2023-03-03T22:55:50.213Z,27.82
2023-03-03T22:57:12.695Z,35.96
2023-03-03T22:58:35.779Z,37.11
2023-03-03T22:59:57.361Z,35.83
2023-03-03T23:01:20.021Z,35.47
2023-03-03T23:02:41.746Z,34.62
2023-03-03T23:04:04.527Z,36.45
2023-03-03T23:05:26.445Z,38.48
2023-03-03T23:06:48.348Z,34.84
2023-03-03T23:08:11.301Z,34.51
2023-03-03T23:09:33.125Z,34.92
2023-03-03T23:10:55.346Z,29.49
2023-03-03T23:12:17.910Z,33.64
2023-03-03T23:13:40.096Z,33.27
2023-03-03T23:15:02.524Z,33.64
2023-03-03T23:16:25.167Z,34.41
2023-03-03T23:17:46.356Z,27.74
2023-03-03T23:19:08.768Z,35.22
2023-03-03T23:20:30.654Z,28.36
2023-03-03T23:21:53.432Z,35.82
2023-03-03T23:23:15.291Z,35.76
2023-03-03T23:24:37.258Z,34.20
2023-03-03T23:26:00.329Z,34.95
2023-03-03T23:27:25.472Z,36.00
2023-03-03T23:28:48.155Z,38.83
2023-03-03T23:30:12.428Z,37.29
2023-03-03T23:31:34.344Z,34.14
2023-03-03T23:32:57.556Z,32.88
2023-03-03T23:34:19.394Z,32.46
2023-03-03T23:35:41.746Z,35.94
2023-03-03T23:37:03.398Z,31.99
2023-03-03T23:38:24.932Z,34.41
2023-03-03T23:39:47.389Z,33.59
2023-03-03T23:41:09.269Z,35.83
2023-03-03T23:42:30.472Z,32.67
2023-03-03T23:43:53.685Z,35.68
2023-03-03T23:45:15.683Z,36.38
2023-03-03T23:46:37.797Z,31.24
2023-03-03T23:48:00.242Z,35.31
2023-03-03T23:49:22.040Z,33.39
2023-03-03T23:50:43.115Z,36.34
2023-03-03T23:52:04.971Z,31.94
2023-03-03T23:53:26.888Z,32.08
2023-03-03T23:54:48.989Z,35.72
2023-03-03T23:56:12.312Z,35.33
2023-03-03T23:57:36.292Z,32.87
2023-03-03T23:58:59.189Z,31.16
